Time;durP1;ratioP1;P1;durP2;ratioP2;P2;SDS_P1;SDS_P2;PMS_P1;PMS_P2;Temp;Humidity;BMP_temperature;BMP_pressure;BME280_temperature;BME280_humidity;BME280_pressure;Samples;Min_cycle;Max_cycle;Signal;HPM_P1;HPM_P2
2021/12/18 00:01:15;;;;;;;1.42;1.33;;;;;;;;;;5013560;28;20045;-54
2021/12/18 00:03:41;;;;;;;2.13;1.40;;;;;;;;;;5014428;28;20026;-52
2021/12/18 00:06:08;;;;;;;1.27;1.00;;;;;;;;;;5012917;28;20033;-57
2021/12/18 00:08:35;;;;;;;4.13;1.98;;;;;;;;;;5011728;28;20030;-55
2021/12/18 00:11:01;;;;;;;2.03;1.50;;;;;;;;;;5011554;28;20372;-50
2021/12/18 00:13:27;;;;;;;2.78;1.23;;;;;;;;;;5012059;28;20025;-54
2021/12/18 00:18:38;;;;;;;3.90;1.83;;;;;;;;;;4991030;28;20033;-54
2021/12/18 00:21:05;;;;;;;2.80;1.35;;;;;;;;;;5013121;28;20040;-52
2021/12/18 00:23:31;;;;;;;3.42;1.60;;;;;;;;;;5014811;28;20030;-54
2021/12/18 00:25:57;;;;;;;2.53;1.40;;;;;;;;;;5013454;28;20422;-55
2021/12/18 00:28:23;;;;;;;1.90;1.10;;;;;;;;;;5012369;28;20037;-54
2021/12/18 00:30:49;;;;;;;1.42;1.00;;;;;;;;;;5028945;28;20029;-54
2021/12/18 00:33:15;;;;;;;3.05;1.45;;;;;;;;;;5012367;28;20459;-55
2021/12/18 00:35:41;;;;;;;1.55;1.30;;;;;;;;;;5013948;28;20161;-56
2021/12/18 00:38:08;;;;;;;5.18;1.33;;;;;;;;;;5013683;28;20062;-56
2021/12/18 00:40:46;;;;;;;2.25;1.15;;;;;;;;;;5012949;28;20026;-53
2021/12/18 00:43:29;;;;;;;5.15;1.88;;;;;;;;;;5003974;28;20049;-59
2021/12/18 00:45:56;;;;;;;2.58;1.50;;;;;;;;;;5003738;28;20391;-56
2021/12/18 00:48:22;;;;;;;4.07;1.35;;;;;;;;;;5003771;28;20033;-56
2021/12/18 00:50:48;;;;;;;7.90;1.88;;;;;;;;;;5004426;28;20030;-55
2021/12/18 00:53:14;;;;;;;2.28;1.30;;;;;;;;;;5000344;28;20027;-55
2021/12/18 00:55:41;;;;;;;1.45;1.10;;;;;;;;;;5002884;28;20026;-56
2021/12/18 00:58:07;;;;;;;1.67;1.20;;;;;;;;;;5001972;28;20046;-55
2021/12/18 01:00:33;;;;;;;3.45;1.50;;;;;;;;;;5003059;28;20026;-56
2021/12/18 01:03:01;;;;;;;1.50;1.30;;;;;;;;;;5002996;28;20443;-56
2021/12/18 01:05:28;;;;;;;2.88;1.23;;;;;;;;;;4999118;28;20014;-56
2021/12/18 01:07:56;;;;;;;4.45;1.30;;;;;;;;;;4997334;28;20494;-56
2021/12/18 01:12:50;;;;;;;2.95;1.35;;;;;;;;;;5012907;28;20076;-54
2021/12/18 01:15:22;;;;;;;2.35;1.25;;;;;;;;;;5012023;28;20037;-56
2021/12/18 01:23:17;;;;;;;1.83;1.40;;;;;;;;;;5012490;28;20161;-54
2021/12/18 01:25:43;;;;;;;3.63;1.70;;;;;;;;;;5012755;28;20137;-53
2021/12/18 01:28:09;;;;;;;2.47;1.65;;;;;;;;;;5012646;28;20022;-60
2021/12/18 01:30:36;;;;;;;3.25;1.38;;;;;;;;;;5012357;28;20475;-54
2021/12/18 01:33:02;;;;;;;2.22;1.40;;;;;;;;;;5013134;28;20515;-55
2021/12/18 01:35:28;;;;;;;1.52;1.15;;;;;;;;;;5012466;28;20418;-53
2021/12/18 01:37:54;;;;;;;2.92;1.20;;;;;;;;;;5012616;28;20029;-56
2021/12/18 01:40:22;;;;;;;1.52;1.10;;;;;;;;;;5011539;28;20014;-53
2021/12/18 01:45:27;;;;;;;1.60;1.42;;;;;;;;;;5011982;28;20026;-55
2021/12/18 01:53:22;;;;;;;1.33;1.17;;;;;;;;;;5011727;28;20120;-54
2021/12/18 01:55:50;;;;;;;1.75;1.38;;;;;;;;;;5012637;28;20045;-55
2021/12/18 01:58:22;;;;;;;1.45;1.25;;;;;;;;;;5011562;28;20446;-56
2021/12/18 02:00:49;;;;;;;2.28;1.40;;;;;;;;;;5011697;28;20121;-54
2021/12/18 02:03:15;;;;;;;2.13;1.30;;;;;;;;;;5010908;28;20058;-55
2021/12/18 02:05:41;;;;;;;1.27;1.10;;;;;;;;;;5012405;28;20036;-56
2021/12/18 02:08:08;;;;;;;2.38;1.70;;;;;;;;;;5012014;28;20371;-56
2021/12/18 02:10:45;;;;;;;1.65;1.55;;;;;;;;;;5011059;28;20080;-55
2021/12/18 02:21:27;;;;;;;3.22;1.48;;;;;;;;;;5010857;28;20084;-53
2021/12/18 02:23:53;;;;;;;1.40;1.30;;;;;;;;;;5011042;28;20546;-55
2021/12/18 02:26:20;;;;;;;2.05;1.80;;;;;;;;;;5011102;28;20472;-55
2021/12/18 02:28:48;;;;;;;1.23;1.13;;;;;;;;;;5011809;28;20025;-52
2021/12/18 02:31:15;;;;;;;2.00;1.63;;;;;;;;;;5011267;28;20026;-59
2021/12/18 02:33:41;;;;;;;2.25;1.27;;;;;;;;;;5011571;28;20096;-55
2021/12/18 02:36:10;;;;;;;1.35;1.05;;;;;;;;;;5012076;28;20423;-56
2021/12/18 02:43:52;;;;;;;1.40;1.20;;;;;;;;;;5011734;28;20125;-54
2021/12/18 02:46:21;;;;;;;1.38;1.20;;;;;;;;;;5010753;28;20034;-55
2021/12/18 02:48:51;;;;;;;1.50;1.02;;;;;;;;;;5012024;28;20025;-55
2021/12/18 02:51:18;;;;;;;1.08;0.98;;;;;;;;;;5011155;28;20101;-56
2021/12/18 02:53:45;;;;;;;1.85;1.52;;;;;;;;;;5011729;28;20038;-53
2021/12/18 02:56:12;;;;;;;1.73;1.33;;;;;;;;;;5011678;28;20084;-58
2021/12/18 02:58:46;;;;;;;1.30;1.10;;;;;;;;;;5010607;28;20545;-54
2021/12/18 03:01:14;;;;;;;1.33;1.20;;;;;;;;;;5010771;28;20088;-59
2021/12/18 03:03:42;;;;;;;2.42;1.42;;;;;;;;;;5011721;28;20049;-53
2021/12/18 03:08:55;;;;;;;1.95;1.50;;;;;;;;;;5011336;28;20463;-54
2021/12/18 03:25:26;;;;;;;1.88;1.30;;;;;;;;;;5014560;28;20421;-56
2021/12/18 03:27:53;;;;;;;;;;;;;;;;;;5015496;28;20030;-56
2021/12/18 03:30:19;;;;;;;1.42;1.17;;;;;;;;;;5013965;28;19935;-55
2021/12/18 03:32:46;;;;;;;1.38;1.10;;;;;;;;;;5015202;28;20419;-55
2021/12/18 03:35:12;;;;;;;1.92;1.50;;;;;;;;;;5015137;28;20026;-56
2021/12/18 03:37:39;;;;;;;1.83;1.20;;;;;;;;;;5014376;28;20033;-56
2021/12/18 03:40:05;;;;;;;1.55;1.45;;;;;;;;;;5014491;28;20101;-56
2021/12/18 03:42:32;;;;;;;1.27;1.17;;;;;;;;;;5013967;28;20038;-55
2021/12/18 03:44:58;;;;;;;1.20;1.10;;;;;;;;;;5015232;28;20029;-55
2021/12/18 03:47:24;;;;;;;1.65;1.45;;;;;;;;;;5013964;28;20018;-58
2021/12/18 03:49:50;;;;;;;1.85;1.10;;;;;;;;;;5014598;28;20036;-55
2021/12/18 03:52:16;;;;;;;1.45;1.30;;;;;;;;;;5014208;28;20041;-60
2021/12/18 03:54:42;;;;;;;1.65;1.27;;;;;;;;;;5014909;28;20029;-56
2021/12/18 03:57:08;;;;;;;1.38;1.15;;;;;;;;;;5014561;28;20188;-55
2021/12/18 03:59:34;;;;;;;1.67;1.13;;;;;;;;;;5013780;28;20022;-55
2021/12/18 04:02:00;;;;;;;1.35;1.17;;;;;;;;;;5014147;28;20021;-55
2021/12/18 04:04:27;;;;;;;1.70;1.38;;;;;;;;;;5013861;28;20025;-56
2021/12/18 04:06:53;;;;;;;1.25;1.10;;;;;;;;;;5014556;28;20022;-57
2021/12/18 04:09:19;;;;;;;1.30;1.20;;;;;;;;;;5013551;28;20419;-54
2021/12/18 04:11:45;;;;;;;1.98;1.40;;;;;;;;;;5014198;28;20025;-55
2021/12/18 04:14:12;;;;;;;1.67;1.23;;;;;;;;;;5014001;28;20109;-55
2021/12/18 04:16:38;;;;;;;1.50;1.02;;;;;;;;;;5013598;28;20026;-55
2021/12/18 04:19:04;;;;;;;1.50;1.30;;;;;;;;;;5014513;28;20375;-56
2021/12/18 04:21:31;;;;;;;1.42;1.05;;;;;;;;;;5013290;28;20105;-56
2021/12/18 04:23:57;;;;;;;1.65;1.45;;;;;;;;;;5013865;28;20025;-57
2021/12/18 04:26:23;;;;;;;3.33;1.65;;;;;;;;;;5013435;28;20092;-56
2021/12/18 04:28:50;;;;;;;1.58;1.20;;;;;;;;;;5013951;28;20459;-54
2021/12/18 04:31:16;;;;;;;1.70;1.42;;;;;;;;;;5013472;28;20033;-60
2021/12/18 04:33:42;;;;;;;1.70;1.20;;;;;;;;;;5013423;28;20121;-56
2021/12/18 04:36:08;;;;;;;1.35;1.23;;;;;;;;;;5014061;28;20076;-53
2021/12/18 04:38:34;;;;;;;1.65;1.35;;;;;;;;;;5012985;28;20030;-55
2021/12/18 04:41:02;;;;;;;1.65;1.40;;;;;;;;;;5013672;28;20068;-55
2021/12/18 04:43:28;;;;;;;1.23;1.02;;;;;;;;;;5013365;28;20113;-53
2021/12/18 04:45:54;;;;;;;1.58;1.23;;;;;;;;;;5013576;28;20097;-54
2021/12/18 04:48:20;;;;;;;1.67;1.23;;;;;;;;;;5012962;28;20374;-54
2021/12/18 04:50:46;;;;;;;1.75;1.30;;;;;;;;;;5013575;28;20022;-55
2021/12/18 04:53:12;;;;;;;2.17;1.20;;;;;;;;;;5013739;28;20467;-54
2021/12/18 04:55:38;;;;;;;1.27;1.00;;;;;;;;;;5012868;28;20045;-56
2021/12/18 04:58:04;;;;;;;1.38;1.27;;;;;;;;;;5011797;28;20477;-54
2021/12/18 05:00:38;;;;;;;2.65;1.20;;;;;;;;;;5012583;28;20038;-55
2021/12/18 05:03:06;;;;;;;1.52;1.38;;;;;;;;;;5013456;28;20478;-55
2021/12/18 05:05:33;;;;;;;2.25;1.42;;;;;;;;;;5012742;28;20109;-55
2021/12/18 05:08:00;;;;;;;1.38;1.20;;;;;;;;;;5013024;28;20383;-55
2021/12/18 05:10:26;;;;;;;2.45;1.75;;;;;;;;;;5010170;28;20064;-55
2021/12/18 05:12:52;;;;;;;2.67;1.90;;;;;;;;;;4999864;28;20062;-55
2021/12/18 05:15:18;;;;;;;1.25;1.15;;;;;;;;;;5001424;28;20108;-60
2021/12/18 05:17:44;;;;;;;1.52;1.00;;;;;;;;;;5000367;28;20022;-58
2021/12/18 05:20:10;;;;;;;1.35;1.10;;;;;;;;;;5004173;28;20479;-54
2021/12/18 05:22:37;;;;;;;1.45;1.17;;;;;;;;;;5002407;28;20101;-56
2021/12/18 05:25:03;;;;;;;1.60;1.20;;;;;;;;;;5004071;28;20025;-56
2021/12/18 05:27:29;;;;;;;1.20;1.10;;;;;;;;;;5003232;28;20507;-54
2021/12/18 05:29:55;;;;;;;1.67;1.30;;;;;;;;;;5003348;28;20022;-55
2021/12/18 05:32:21;;;;;;;2.67;1.20;;;;;;;;;;5000894;28;20096;-56
2021/12/18 05:34:47;;;;;;;1.48;1.27;;;;;;;;;;5002645;28;20030;-54
2021/12/18 05:39:39;;;;;;;1.50;1.35;;;;;;;;;;5001765;28;20025;-57
2021/12/18 05:42:06;;;;;;;1.95;1.45;;;;;;;;;;5003644;28;20106;-55
2021/12/18 05:44:32;;;;;;;1.85;1.15;;;;;;;;;;5001482;28;20433;-57
2021/12/18 05:46:58;;;;;;;1.90;1.50;;;;;;;;;;5000524;28;20030;-55
2021/12/18 05:49:24;;;;;;;2.00;1.38;;;;;;;;;;5001208;28;20033;-56
2021/12/18 05:51:51;;;;;;;1.50;1.00;;;;;;;;;;5004615;28;20237;-58
2021/12/18 05:54:17;;;;;;;3.08;1.33;;;;;;;;;;5000387;28;20030;-60
2021/12/18 05:56:43;;;;;;;1.40;1.30;;;;;;;;;;5000845;28;20088;-56
2021/12/18 05:59:09;;;;;;;1.60;1.13;;;;;;;;;;5002198;28;20030;-58
2021/12/18 06:01:35;;;;;;;1.50;1.40;;;;;;;;;;5004850;28;20502;-55
2021/12/18 06:04:02;;;;;;;2.47;1.40;;;;;;;;;;5005706;28;20383;-55
2021/12/18 06:06:29;;;;;;;1.67;1.50;;;;;;;;;;5011573;28;20049;-55
2021/12/18 06:08:55;;;;;;;2.58;1.20;;;;;;;;;;5012342;28;20032;-55
2021/12/18 06:11:22;;;;;;;1.58;1.25;;;;;;;;;;5011240;28;20038;-58
2021/12/18 06:13:50;;;;;;;1.48;1.20;;;;;;;;;;5012107;28;20490;-55
2021/12/18 06:16:17;;;;;;;1.15;1.05;;;;;;;;;;5012038;28;20030;-54
2021/12/18 06:18:44;;;;;;;1.95;1.55;;;;;;;;;;5011619;28;20026;-55
2021/12/18 06:21:12;;;;;;;1.25;0.90;;;;;;;;;;5012084;28;20113;-54
2021/12/18 06:23:39;;;;;;;1.65;1.38;;;;;;;;;;5011515;28;20145;-56
2021/12/18 06:26:05;;;;;;;3.55;1.00;;;;;;;;;;5011980;28;20106;-56
2021/12/18 06:28:31;;;;;;;1.75;1.35;;;;;;;;;;5011285;28;20037;-56
2021/12/18 06:30:57;;;;;;;1.27;1.10;;;;;;;;;;5012039;28;20026;-56
2021/12/18 06:33:23;;;;;;;1.52;1.05;;;;;;;;;;5011090;28;20026;-55
2021/12/18 06:35:49;;;;;;;2.35;1.48;;;;;;;;;;5012214;28;20041;-56
2021/12/18 06:38:15;;;;;;;0.95;0.82;;;;;;;;;;5011835;28;20026;-54
2021/12/18 06:40:42;;;;;;;1.08;0.90;;;;;;;;;;5011085;28;20069;-56
2021/12/18 06:43:08;;;;;;;1.30;1.20;;;;;;;;;;5011767;28;20034;-53
2021/12/18 06:45:34;;;;;;;1.30;0.90;;;;;;;;;;5011415;28;20077;-55
2021/12/18 06:48:00;;;;;;;1.80;1.15;;;;;;;;;;5011700;28;20053;-55
2021/12/18 06:50:26;;;;;;;2.00;1.00;;;;;;;;;;5010738;28;20069;-55
2021/12/18 06:52:52;;;;;;;1.23;1.10;;;;;;;;;;5011720;28;20061;-55
2021/12/18 06:55:18;;;;;;;1.10;1.00;;;;;;;;;;5011747;28;20080;-58
2021/12/18 06:57:44;;;;;;;2.65;1.02;;;;;;;;;;5014386;28;20054;-56
2021/12/18 07:00:12;;;;;;;1.50;1.00;;;;;;;;;;5015468;28;20451;-55
2021/12/18 07:02:38;;;;;;;1.10;1.00;;;;;;;;;;5011718;28;20029;-56
2021/12/18 07:05:04;;;;;;;0.90;0.73;;;;;;;;;;5007110;28;20037;-55
2021/12/18 07:07:31;;;;;;;2.17;1.00;;;;;;;;;;5013041;28;20108;-58
2021/12/18 07:09:57;;;;;;;1.30;1.20;;;;;;;;;;5013864;28;20022;-55
2021/12/18 07:12:23;;;;;;;1.52;1.20;;;;;;;;;;5014205;28;20041;-57
2021/12/18 07:14:49;;;;;;;2.03;1.38;;;;;;;;;;5015236;28;20034;-56
2021/12/18 07:17:15;;;;;;;1.73;1.30;;;;;;;;;;5015633;28;20108;-53
2021/12/18 07:19:41;;;;;;;1.17;1.08;;;;;;;;;;5008677;28;20221;-55
2021/12/18 07:22:07;;;;;;;1.15;0.98;;;;;;;;;;5005998;28;20033;-54
2021/12/18 07:24:33;;;;;;;1.02;0.90;;;;;;;;;;4996502;28;20038;-51
2021/12/18 07:26:59;;;;;;;1.05;0.95;;;;;;;;;;5013415;28;20040;-55
2021/12/18 07:29:25;;;;;;;0.95;0.85;;;;;;;;;;5013224;28;20092;-53
2021/12/18 07:31:51;;;;;;;1.35;0.80;;;;;;;;;;5015351;28;20026;-53
2021/12/18 07:34:18;;;;;;;1.25;1.10;;;;;;;;;;5014936;28;20034;-51
2021/12/18 07:36:44;;;;;;;1.13;1.00;;;;;;;;;;5013452;28;20026;-54
2021/12/18 07:39:10;;;;;;;1.48;1.25;;;;;;;;;;5005015;28;20060;-54
2021/12/18 07:41:36;;;;;;;1.80;0.82;;;;;;;;;;5004014;28;20026;-55
2021/12/18 07:44:03;;;;;;;0.98;0.88;;;;;;;;;;5002857;28;20025;-56
2021/12/18 07:46:29;;;;;;;2.17;1.70;;;;;;;;;;5003335;28;20084;-54
2021/12/18 07:48:56;;;;;;;2.45;0.95;;;;;;;;;;5006526;28;20475;-54
2021/12/18 07:51:22;;;;;;;0.90;0.80;;;;;;;;;;5002363;28;20053;-59
2021/12/18 07:53:48;;;;;;;1.50;0.90;;;;;;;;;;5005719;28;20037;-58
2021/12/18 07:56:14;;;;;;;2.22;1.20;;;;;;;;;;5004092;28;20125;-56
2021/12/18 07:58:40;;;;;;;1.58;1.10;;;;;;;;;;5003986;28;20050;-53
2021/12/18 08:01:06;;;;;;;2.40;1.13;;;;;;;;;;5006098;28;20502;-54
2021/12/18 08:03:32;;;;;;;2.70;1.30;;;;;;;;;;5004940;28;20161;-55
2021/12/18 08:05:58;;;;;;;1.25;1.08;;;;;;;;;;5009446;28;20030;-57
2021/12/18 08:08:24;;;;;;;2.28;1.50;;;;;;;;;;5008092;28;20053;-57
2021/12/18 08:10:50;;;;;;;1.08;0.98;;;;;;;;;;5010601;28;20054;-55
2021/12/18 08:13:16;;;;;;;1.83;1.00;;;;;;;;;;5005300;28;20436;-57
2021/12/18 08:15:42;;;;;;;0.75;0.70;;;;;;;;;;5004124;28;20101;-53
2021/12/18 08:18:08;;;;;;;1.98;1.05;;;;;;;;;;5006147;28;20053;-54
2021/12/18 08:20:34;;;;;;;1.05;0.85;;;;;;;;;;5004500;28;20029;-51
2021/12/18 08:23:00;;;;;;;3.35;1.15;;;;;;;;;;5004746;28;20064;-51
2021/12/18 08:25:27;;;;;;;1.40;0.90;;;;;;;;;;5007887;28;20057;-58
2021/12/18 08:27:55;;;;;;;1.10;0.80;;;;;;;;;;5005052;28;20443;-55
2021/12/18 08:30:21;;;;;;;1.08;0.93;;;;;;;;;;5005699;28;20102;-57
2021/12/18 08:32:47;;;;;;;0.85;0.77;;;;;;;;;;5005136;28;20033;-56
2021/12/18 08:35:13;;;;;;;1.67;1.00;;;;;;;;;;5003626;28;20029;-57
2021/12/18 08:37:40;;;;;;;1.10;1.00;;;;;;;;;;5005687;28;20451;-51
2021/12/18 08:40:07;;;;;;;1.63;1.20;;;;;;;;;;5005112;28;20028;-59
2021/12/18 08:42:33;;;;;;;1.00;0.80;;;;;;;;;;5002981;28;20030;-54
2021/12/18 08:44:59;;;;;;;1.55;1.17;;;;;;;;;;5006255;28;20042;-54
2021/12/18 08:47:25;;;;;;;1.33;0.80;;;;;;;;;;5003939;28;20038;-58
2021/12/18 08:49:51;;;;;;;1.77;0.93;;;;;;;;;;5003930;28;20118;-55
2021/12/18 08:52:18;;;;;;;1.40;1.00;;;;;;;;;;5005108;28;20490;-69
2021/12/18 08:54:44;;;;;;;2.03;1.10;;;;;;;;;;5003602;28;20022;-69
2021/12/18 08:57:10;;;;;;;1.50;0.88;;;;;;;;;;5003646;28;20057;-69
2021/12/18 08:59:38;;;;;;;1.30;1.20;;;;;;;;;;5001498;28;20022;-67
2021/12/18 09:02:04;;;;;;;2.30;1.00;;;;;;;;;;5004663;28;20026;-68
2021/12/18 09:04:30;;;;;;;2.15;1.20;;;;;;;;;;5003550;28;20093;-68
2021/12/18 09:06:56;;;;;;;1.98;1.25;;;;;;;;;;5004217;28;20476;-67
2021/12/18 09:09:22;;;;;;;1.40;1.00;;;;;;;;;;5005610;28;20116;-67
2021/12/18 09:11:48;;;;;;;1.77;1.05;;;;;;;;;;5005290;28;20076;-71
2021/12/18 09:14:14;;;;;;;1.70;1.00;;;;;;;;;;5007086;28;20040;-69
2021/12/18 09:16:40;;;;;;;2.35;1.20;;;;;;;;;;5003830;28;20045;-70
2021/12/18 09:19:06;;;;;;;1.42;1.20;;;;;;;;;;5006088;28;20034;-68
2021/12/18 09:21:32;;;;;;;11.43;1.33;;;;;;;;;;5001465;28;20025;-66
2021/12/18 09:23:58;;;;;;;1.25;1.05;;;;;;;;;;5002337;28;20542;-67
2021/12/18 09:26:24;;;;;;;2.50;1.10;;;;;;;;;;5003967;28;20038;-67
2021/12/18 09:28:50;;;;;;;1.30;1.00;;;;;;;;;;5005616;28;20026;-68
2021/12/18 09:31:17;;;;;;;1.73;0.93;;;;;;;;;;5003235;28;20052;-67
2021/12/18 09:33:43;;;;;;;1.67;0.90;;;;;;;;;;5006856;28;20037;-67
2021/12/18 09:36:09;;;;;;;1.33;0.95;;;;;;;;;;5002080;28;20031;-68
2021/12/18 09:38:35;;;;;;;2.97;1.17;;;;;;;;;;5002820;28;20046;-67
2021/12/18 09:41:02;;;;;;;2.85;0.90;;;;;;;;;;5002776;28;20032;-65
2021/12/18 09:43:29;;;;;;;1.02;0.80;;;;;;;;;;5004673;28;20026;-67
2021/12/18 09:46:01;;;;;;;1.83;1.00;;;;;;;;;;5003310;28;20078;-66
2021/12/18 09:48:27;;;;;;;1.20;0.88;;;;;;;;;;5003971;28;20411;-68
2021/12/18 09:50:56;;;;;;;2.20;1.13;;;;;;;;;;5004935;28;20034;-65
2021/12/18 09:53:22;;;;;;;1.95;0.93;;;;;;;;;;5004348;28;20030;-70
2021/12/18 09:55:48;;;;;;;1.10;1.00;;;;;;;;;;5002371;28;20030;-65
2021/12/18 09:58:14;;;;;;;1.33;1.00;;;;;;;;;;5001744;28;20076;-66
2021/12/18 10:00:40;;;;;;;1.50;0.70;;;;;;;;;;5004901;28;20467;-66
2021/12/18 10:03:07;;;;;;;2.25;0.75;;;;;;;;;;5002357;28;20057;-65
2021/12/18 10:05:35;;;;;;;1.70;1.38;;;;;;;;;;5004094;28;20025;-66
2021/12/18 10:08:15;;;;;;;2.60;0.80;;;;;;;;;;5004828;28;20549;-64
2021/12/18 10:11:01;;;;;;;2.90;1.40;;;;;;;;;;4999781;28;20463;-66
2021/12/18 10:13:27;;;;;;;2.22;1.00;;;;;;;;;;5011198;28;20049;-66
2021/12/18 10:16:10;;;;;;;2.05;0.90;;;;;;;;;;5011823;28;20034;-68
2021/12/18 10:18:36;;;;;;;1.58;0.90;;;;;;;;;;5012237;28;20044;-67
2021/12/18 10:21:09;;;;;;;1.55;0.85;;;;;;;;;;5018042;28;20463;-68
2021/12/18 10:23:36;;;;;;;2.00;0.85;;;;;;;;;;5010822;28;20140;-67
2021/12/18 10:26:02;;;;;;;3.95;1.23;;;;;;;;;;5011596;28;20044;-67
2021/12/18 10:28:42;;;;;;;2.35;0.90;;;;;;;;;;5010203;28;20037;-71
2021/12/18 10:31:08;;;;;;;2.22;1.02;;;;;;;;;;5012178;28;20434;-71
2021/12/18 10:33:35;;;;;;;2.50;1.27;;;;;;;;;;5010971;28;20164;-68
2021/12/18 10:36:01;;;;;;;4.70;1.15;;;;;;;;;;5011706;28;20088;-67
2021/12/18 10:38:49;;;;;;;3.13;1.00;;;;;;;;;;5011094;28;20089;-61
2021/12/18 10:41:27;;;;;;;12.77;1.70;;;;;;;;;;5011579;28;20518;-64
2021/12/18 10:43:58;;;;;;;2.67;1.10;;;;;;;;;;5011654;28;20037;-70
2021/12/18 10:46:24;;;;;;;3.42;0.98;;;;;;;;;;5011366;28;20033;-66
2021/12/18 10:48:56;;;;;;;2.65;1.02;;;;;;;;;;5011049;28;20103;-65
2021/12/18 10:51:22;;;;;;;;;;;;;;;;;;5011994;28;20025;-63
2021/12/18 10:53:48;;;;;;;2.97;1.17;;;;;;;;;;5010383;28;19913;-63
2021/12/18 10:56:14;;;;;;;6.15;1.10;;;;;;;;;;5010616;28;20497;-65
2021/12/18 10:58:40;;;;;;;4.95;0.95;;;;;;;;;;5010810;28;20037;-66
2021/12/18 11:01:11;;;;;;;2.25;1.35;;;;;;;;;;5011524;28;20053;-63
2021/12/18 11:03:43;;;;;;;3.70;1.05;;;;;;;;;;5010878;28;20550;-62
2021/12/18 11:06:20;;;;;;;2.38;1.02;;;;;;;;;;5011333;28;20498;-65
2021/12/18 11:09:05;;;;;;;2.17;1.20;;;;;;;;;;5010232;28;20606;-67
2021/12/18 11:14:04;;;;;;;2.08;1.13;;;;;;;;;;5010387;28;20065;-69
2021/12/18 11:16:30;;;;;;;2.22;1.30;;;;;;;;;;5010472;28;20026;-71
2021/12/18 11:18:56;;;;;;;4.93;2.05;;;;;;;;;;4997561;28;20022;-66
2021/12/18 11:21:26;;;;;;;3.83;1.13;;;;;;;;;;5011329;28;20117;-73
2021/12/18 11:23:57;;;;;;;2.28;1.48;;;;;;;;;;5010246;28;20030;-64
2021/12/18 11:26:24;;;;;;;5.35;1.58;;;;;;;;;;5009697;28;20169;-65
2021/12/18 11:28:51;;;;;;;6.28;1.50;;;;;;;;;;5010856;28;20026;-58
2021/12/18 11:31:17;;;;;;;10.15;1.75;;;;;;;;;;5011213;28;20060;-66
2021/12/18 11:33:43;;;;;;;6.82;1.73;;;;;;;;;;5010361;28;20383;-59
2021/12/18 11:36:09;;;;;;;6.40;1.35;;;;;;;;;;5011392;28;20037;-59
2021/12/18 11:38:37;;;;;;;6.47;1.63;;;;;;;;;;5010629;28;20030;-60
2021/12/18 11:41:03;;;;;;;4.30;1.52;;;;;;;;;;5010894;28;20026;-65
2021/12/18 11:43:42;;;;;;;8.23;2.40;;;;;;;;;;5012235;28;20383;-63
2021/12/18 11:46:26;;;;;;;5.57;1.83;;;;;;;;;;5014391;28;20076;-59
2021/12/18 11:48:56;;;;;;;5.43;1.60;;;;;;;;;;5013622;28;20045;-59
2021/12/18 11:51:22;;;;;;;3.92;1.70;;;;;;;;;;5014548;28;20064;-61
2021/12/18 11:53:48;;;;;;;3.95;1.40;;;;;;;;;;5013360;28;20201;-64
2021/12/18 11:56:14;;;;;;;4.30;1.40;;;;;;;;;;5013745;28;20489;-63
2021/12/18 11:58:45;;;;;;;4.70;2.00;;;;;;;;;;5013509;28;20044;-56
2021/12/18 12:01:21;;;;;;;6.97;2.10;;;;;;;;;;5014237;28;20092;-57
2021/12/18 12:03:57;;;;;;;4.28;1.83;;;;;;;;;;5013410;28;20532;-62
2021/12/18 12:06:30;;;;;;;5.32;1.52;;;;;;;;;;5014268;28;20034;-62
2021/12/18 12:11:52;;;;;;;8.85;2.13;;;;;;;;;;5013250;28;20137;-61
2021/12/18 12:14:20;;;;;;;5.68;1.80;;;;;;;;;;5013918;28;20041;-60
2021/12/18 12:16:46;;;;;;;3.75;1.60;;;;;;;;;;5013183;28;20026;-61
2021/12/18 12:19:15;;;;;;;3.33;1.35;;;;;;;;;;5013570;28;20114;-61
2021/12/18 12:21:47;;;;;;;5.20;1.52;;;;;;;;;;5012987;28;20545;-62
2021/12/18 12:24:14;;;;;;;5.53;2.20;;;;;;;;;;5013453;28;20049;-61
2021/12/18 12:26:40;;;;;;;6.60;1.58;;;;;;;;;;5012302;28;20042;-62
2021/12/18 12:29:07;;;;;;;4.18;2.00;;;;;;;;;;5013579;28;20061;-62
2021/12/18 12:31:33;;;;;;;3.10;1.58;;;;;;;;;;5013100;28;20021;-62
2021/12/18 12:34:18;;;;;;;7.13;2.08;;;;;;;;;;5013898;28;20048;-61
2021/12/18 12:36:45;;;;;;;3.75;1.40;;;;;;;;;;5012685;28;20095;-62
2021/12/18 12:39:14;;;;;;;3.67;1.30;;;;;;;;;;5013196;28;20026;-61
2021/12/18 12:41:52;;;;;;;5.25;1.33;;;;;;;;;;5021810;28;20471;-62
2021/12/18 12:44:26;;;;;;;3.60;1.60;;;;;;;;;;5013306;28;20053;-61
2021/12/18 12:47:11;;;;;;;5.13;1.48;;;;;;;;;;5015740;28;20244;-62
2021/12/18 12:49:37;;;;;;;4.93;1.75;;;;;;;;;;5003745;28;20036;-62
2021/12/18 12:52:04;;;;;;;5.32;1.70;;;;;;;;;;5012736;28;20038;-62
2021/12/18 12:54:49;;;;;;;4.60;1.40;;;;;;;;;;5011888;28;20026;-62
2021/12/18 12:57:24;;;;;;;6.65;2.47;;;;;;;;;;5013023;28;20077;-62
2021/12/18 12:59:50;;;;;;;3.92;1.75;;;;;;;;;;5012150;28;20034;-63
2021/12/18 13:02:16;;;;;;;2.70;1.70;;;;;;;;;;5012767;28;20372;-62
2021/12/18 13:04:42;;;;;;;2.67;1.50;;;;;;;;;;5012282;28;20451;-63
2021/12/18 13:07:09;;;;;;;3.38;1.73;;;;;;;;;;5013149;28;20075;-64
2021/12/18 13:09:35;;;;;;;2.88;1.58;;;;;;;;;;5012305;28;20022;-64
2021/12/18 13:12:03;;;;;;;3.13;2.08;;;;;;;;;;5013042;28;20033;-63
2021/12/18 13:14:39;;;;;;;3.05;1.50;;;;;;;;;;5012291;28;20045;-63
2021/12/18 13:17:20;;;;;;;3.60;1.95;;;;;;;;;;5009673;28;20096;-65
2021/12/18 13:20:00;;;;;;;3.92;1.25;;;;;;;;;;5013435;28;20475;-64
2021/12/18 13:22:30;;;;;;;3.15;1.70;;;;;;;;;;5013855;28;20521;-61
2021/12/18 13:25:07;;;;;;;4.07;1.75;;;;;;;;;;5009454;28;20121;-61
2021/12/18 13:27:34;;;;;;;4.07;1.90;;;;;;;;;;5010345;28;20040;-61
2021/12/18 13:30:17;;;;;;;2.20;1.33;;;;;;;;;;5011760;28;20069;-61
2021/12/18 13:32:52;;;;;;;3.10;1.65;;;;;;;;;;5011226;28;20033;-61
2021/12/18 13:35:19;;;;;;;4.82;1.83;;;;;;;;;;5000967;28;20511;-61
2021/12/18 13:37:54;;;;;;;2.72;1.40;;;;;;;;;;5011375;28;20029;-61
2021/12/18 13:40:20;;;;;;;2.47;1.33;;;;;;;;;;5011489;28;20505;-60
2021/12/18 13:42:46;;;;;;;3.45;1.75;;;;;;;;;;5010915;28;20557;-61
2021/12/18 13:45:12;;;;;;;3.95;1.33;;;;;;;;;;5010895;28;20532;-60
2021/12/18 13:47:40;;;;;;;2.15;1.30;;;;;;;;;;5010462;28;20034;-60
2021/12/18 13:50:06;;;;;;;2.40;1.38;;;;;;;;;;5013554;28;20482;-61
2021/12/18 13:52:33;;;;;;;2.33;1.60;;;;;;;;;;5012836;28;20030;-61
2021/12/18 13:55:00;;;;;;;2.20;1.40;;;;;;;;;;5011917;28;20030;-60
2021/12/18 13:57:26;;;;;;;3.70;1.65;;;;;;;;;;5011689;28;20096;-61
2021/12/18 14:00:01;;;;;;;3.40;1.55;;;;;;;;;;5010851;28;20614;-61
2021/12/18 14:02:27;;;;;;;2.10;1.35;;;;;;;;;;5010290;28;20056;-61
2021/12/18 14:04:54;;;;;;;2.67;1.65;;;;;;;;;;5010971;28;20017;-61
2021/12/18 14:07:21;;;;;;;1.88;1.40;;;;;;;;;;5011755;28;20022;-61
2021/12/18 14:09:49;;;;;;;2.83;1.48;;;;;;;;;;5010463;28;20025;-61
2021/12/18 14:12:21;;;;;;;2.65;1.60;;;;;;;;;;5011517;28;20106;-61
2021/12/18 14:14:49;;;;;;;2.67;1.63;;;;;;;;;;4996333;28;20049;-62
2021/12/18 14:17:16;;;;;;;2.17;1.45;;;;;;;;;;5012094;28;20022;-61
2021/12/18 14:19:44;;;;;;;2.38;1.38;;;;;;;;;;5010529;28;20022;-61
2021/12/18 14:22:11;;;;;;;1.67;1.38;;;;;;;;;;5011939;28;20391;-61
2021/12/18 14:24:40;;;;;;;1.88;1.42;;;;;;;;;;5010226;28;20097;-61
2021/12/18 14:27:07;;;;;;;2.30;1.38;;;;;;;;;;5011250;28;20108;-61
2021/12/18 14:29:34;;;;;;;2.97;1.50;;;;;;;;;;5010620;28;20471;-61
2021/12/18 14:32:01;;;;;;;3.38;1.60;;;;;;;;;;5010998;28;20028;-61
2021/12/18 14:34:29;;;;;;;2.28;1.35;;;;;;;;;;5012036;28;20034;-61
2021/12/18 14:37:06;;;;;;;2.67;1.80;;;;;;;;;;5010607;28;20597;-61
2021/12/18 14:39:44;;;;;;;2.40;1.27;;;;;;;;;;5011478;28;20356;-61
2021/12/18 14:42:35;;;;;;;4.50;1.63;;;;;;;;;;5011481;28;20211;-61
2021/12/18 14:45:07;;;;;;;2.58;1.73;;;;;;;;;;5010518;28;20487;-61
2021/12/18 14:47:33;;;;;;;;;;;;;;;;;;5001418;28;20049;-61
2021/12/18 14:50:08;;;;;;;2.28;1.65;;;;;;;;;;5004279;28;19914;-61
2021/12/18 14:52:52;;;;;;;4.03;1.50;;;;;;;;;;5011363;28;20049;-61
2021/12/18 14:55:23;;;;;;;1.60;1.30;;;;;;;;;;5011416;28;20041;-61
2021/12/18 14:57:57;;;;;;;2.30;1.30;;;;;;;;;;4991134;28;20057;-61
2021/12/18 15:00:24;;;;;;;1.98;1.35;;;;;;;;;;5001290;28;20026;-61
2021/12/18 15:02:58;;;;;;;2.88;1.40;;;;;;;;;;5010291;28;20030;-61
2021/12/18 15:05:26;;;;;;;1.92;1.10;;;;;;;;;;5011146;28;20100;-61
2021/12/18 15:08:03;;;;;;;2.47;1.40;;;;;;;;;;5010368;28;20038;-61
2021/12/18 15:10:47;;;;;;;1.60;1.08;;;;;;;;;;5011444;28;20022;-61
2021/12/18 15:13:13;;;;;;;2.25;1.45;;;;;;;;;;5011317;28;20065;-61
2021/12/18 15:15:40;;;;;;;2.67;1.55;;;;;;;;;;5009297;28;20083;-61
2021/12/18 15:18:06;;;;;;;2.22;1.10;;;;;;;;;;5005846;28;20105;-61
2021/12/18 15:20:32;;;;;;;1.40;1.20;;;;;;;;;;5015206;28;20105;-62
2021/12/18 15:22:58;;;;;;;2.10;1.10;;;;;;;;;;5013941;28;20088;-62
2021/12/18 15:25:23;;;;;;;2.78;1.52;;;;;;;;;;5015140;28;20030;-60
2021/12/18 15:27:49;;;;;;;3.83;1.63;;;;;;;;;;5014231;28;20026;-60
2021/12/18 15:30:15;;;;;;;2.67;1.20;;;;;;;;;;5014579;28;20026;-61
2021/12/18 15:32:41;;;;;;;1.67;1.42;;;;;;;;;;5013587;28;20527;-60
2021/12/18 15:35:08;;;;;;;1.85;1.45;;;;;;;;;;5014656;28;20079;-61
2021/12/18 15:37:34;;;;;;;1.52;1.30;;;;;;;;;;5014791;28;20026;-61
2021/12/18 15:40:00;;;;;;;2.20;1.30;;;;;;;;;;5013830;28;20029;-60
2021/12/18 15:42:29;;;;;;;3.15;1.35;;;;;;;;;;5014657;28;20356;-61
2021/12/18 15:44:55;;;;;;;4.40;1.63;;;;;;;;;;5013660;28;20091;-59